Kartaly, Russia
Current Conditions -  °F | °C
As of 2:00 AM on Saturday 01 Nov 2014 (Local Time) from USCM Reporting Station
Scattered Clouds Scattered Clouds  
Wind Chill: 27°   Ceiling: Unl
Heat Index: 34°   Visibility: 5mi
Dew Point: 16°   Wind: 9mph
Humidity: 48%   Direction: 240°WSW
Pressure: 30.09"   Gusts: NA
Location:  53.05°N, 60.67°E
Report Text: USCM 312000Z 24004MPS 8000 SCT100 01/M09 Q1019 NOSIG 19090065RMK QFE726
Loading
Personal Weather Stations






























Interactive Weather Map
Tropical Storm Tracking
New forecast layout! Learn more

10-Day Weather Forecast

Advertisements
Track Severe Weather on mobile